createdAt,value
2022-12-22T00:01:54.658Z,3.97
2022-12-22T00:04:40.213Z,4.67
2022-12-22T00:07:25.566Z,3.83
2022-12-22T00:10:11.140Z,4.43
2022-12-22T00:12:56.509Z,3.67
2022-12-22T00:15:41.563Z,3.70
2022-12-22T00:18:27.087Z,3.47
2022-12-22T00:21:12.523Z,2.87
2022-12-22T00:23:57.987Z,3.40
2022-12-22T00:26:43.321Z,3.50
2022-12-22T00:29:28.497Z,3.17
2022-12-22T00:32:13.664Z,3.70
2022-12-22T00:34:59.066Z,4.33
2022-12-22T00:37:44.612Z,4.00
2022-12-22T00:40:29.833Z,5.67
2022-12-22T00:43:15.013Z,3.50
2022-12-22T00:46:00.141Z,3.30
2022-12-22T00:48:45.746Z,2.80
2022-12-22T00:51:31.079Z,3.20
2022-12-22T00:54:16.294Z,3.03
2022-12-22T00:57:01.401Z,2.53
2022-12-22T00:59:46.840Z,2.67
2022-12-22T01:02:32.413Z,3.47
2022-12-22T01:05:17.800Z,3.00
2022-12-22T01:08:02.861Z,3.53
2022-12-22T01:10:48.398Z,3.10
2022-12-22T01:13:33.389Z,4.10
2022-12-22T01:16:18.922Z,3.50
2022-12-22T01:19:04.232Z,4.00
2022-12-22T01:21:49.671Z,3.20
2022-12-22T01:24:34.901Z,3.70
2022-12-22T01:27:20.060Z,2.90
2022-12-22T01:30:05.402Z,5.57
2022-12-22T01:32:50.602Z,5.73
2022-12-22T01:35:36.071Z,4.10
2022-12-22T01:38:21.322Z,4.07
2022-12-22T01:41:06.806Z,7.17
2022-12-22T01:43:52.065Z,3.07
2022-12-22T01:46:37.163Z,2.90
2022-12-22T01:49:22.613Z,2.50
2022-12-22T01:52:07.598Z,4.63
2022-12-22T01:54:53.030Z,5.90
2022-12-22T01:57:38.185Z,3.50
2022-12-22T02:00:23.563Z,2.27
2022-12-22T02:03:08.921Z,2.30
2022-12-22T02:05:54.288Z,2.40
2022-12-22T02:08:39.431Z,2.43
2022-12-22T02:11:24.342Z,2.17
2022-12-22T02:14:09.511Z,2.60
2022-12-22T02:16:54.619Z,1.87
2022-12-22T02:19:40.048Z,2.13
2022-12-22T02:22:25.542Z,1.97
2022-12-22T02:25:10.751Z,1.80
2022-12-22T02:27:55.994Z,2.23
2022-12-22T02:30:41.209Z,1.83
2022-12-22T02:33:26.607Z,1.70
2022-12-22T02:36:12.090Z,2.60
2022-12-22T02:38:57.309Z,1.63
2022-12-22T02:41:42.923Z,1.30
2022-12-22T02:44:28.020Z,1.17
2022-12-22T02:47:13.547Z,1.63
2022-12-22T02:49:58.853Z,1.50
2022-12-22T02:52:44.143Z,1.30
2022-12-22T02:55:29.276Z,1.60
2022-12-22T02:58:14.723Z,1.20
2022-12-22T03:00:59.864Z,2.73
2022-12-22T03:03:45.549Z,3.00
2022-12-22T03:06:31.107Z,2.87
2022-12-22T03:09:16.341Z,4.67
2022-12-22T03:12:01.639Z,3.43
2022-12-22T03:14:47.148Z,2.30
2022-12-22T03:17:32.516Z,4.47
2022-12-22T03:20:17.707Z,3.17
2022-12-22T03:23:03.116Z,3.80
2022-12-22T03:25:48.427Z,10.00
2022-12-22T03:28:15.041Z,9.17
2022-12-22T03:30:41.561Z,3.13
2022-12-22T03:33:08.142Z,2.33
2022-12-22T03:35:34.631Z,1.77
2022-12-22T03:38:03.388Z,2.87
2022-12-22T03:40:30.268Z,2.27
2022-12-22T03:43:15.638Z,2.20
2022-12-22T03:46:01.110Z,2.10
2022-12-22T03:48:27.705Z,2.30
2022-12-22T03:50:54.262Z,2.40
2022-12-22T03:53:20.768Z,2.77
2022-12-22T03:55:47.290Z,2.07
2022-12-22T03:58:13.897Z,2.00
2022-12-22T04:00:40.510Z,1.90
2022-12-22T04:03:07.134Z,2.60
2022-12-22T04:05:33.710Z,1.63
2022-12-22T04:08:00.242Z,2.20
2022-12-22T04:10:45.809Z,2.67
2022-12-22T04:13:12.304Z,2.60
2022-12-22T04:15:38.787Z,1.73
2022-12-22T04:18:05.332Z,2.63
2022-12-22T04:20:31.935Z,2.77
2022-12-22T04:22:58.467Z,2.03
2022-12-22T04:25:24.959Z,1.60
2022-12-22T04:27:51.858Z,1.50
2022-12-22T04:30:18.448Z,1.27
2022-12-22T04:32:45.097Z,1.60
2022-12-22T04:35:11.629Z,1.90
2022-12-22T04:37:38.231Z,1.37
2022-12-22T04:40:04.738Z,1.80
2022-12-22T04:42:31.301Z,1.30
2022-12-22T04:44:57.819Z,2.10
2022-12-22T04:47:24.331Z,1.53
2022-12-22T04:49:51.009Z,1.70
2022-12-22T04:52:17.507Z,1.70
2022-12-22T04:54:44.117Z,1.70
2022-12-22T04:57:10.636Z,2.37
2022-12-22T04:59:37.127Z,1.63
2022-12-22T05:02:03.735Z,1.00
2022-12-22T05:04:30.414Z,1.47
2022-12-22T05:06:56.946Z,1.50
2022-12-22T05:09:23.442Z,1.50
2022-12-22T05:11:49.950Z,1.63
2022-12-22T05:14:16.420Z,1.30
2022-12-22T05:16:42.951Z,1.37
2022-12-22T05:19:09.512Z,1.20
2022-12-22T05:21:36.063Z,1.30
2022-12-22T05:24:05.456Z,1.20
2022-12-22T05:26:31.964Z,1.63
2022-12-22T05:28:58.602Z,1.03
2022-12-22T05:31:25.270Z,1.23
2022-12-22T05:33:51.964Z,1.37
2022-12-22T05:36:18.495Z,1.37
2022-12-22T05:38:45.023Z,1.60
2022-12-22T05:41:11.522Z,1.07
2022-12-22T05:43:38.066Z,0.90
2022-12-22T05:46:04.668Z,0.80
2022-12-22T05:48:37.469Z,0.80
2022-12-22T05:51:04.880Z,0.83
2022-12-22T05:53:31.625Z,0.50
2022-12-22T05:55:58.286Z,0.60
2022-12-22T05:58:24.803Z,0.63
2022-12-22T06:00:51.336Z,0.70
2022-12-22T06:03:18.049Z,0.70
2022-12-22T06:05:44.653Z,0.70
2022-12-22T06:08:11.166Z,0.70
2022-12-22T06:10:37.668Z,0.70
2022-12-22T06:13:04.163Z,0.70
2022-12-22T06:15:30.672Z,0.77
2022-12-22T06:17:57.163Z,0.70
2022-12-22T06:20:23.729Z,0.60
2022-12-22T06:22:50.230Z,0.50
2022-12-22T06:25:18.710Z,0.60
2022-12-22T06:27:45.647Z,0.70
2022-12-22T06:30:12.143Z,0.70
2022-12-22T06:32:38.765Z,1.00
2022-12-22T06:35:05.297Z,0.70
2022-12-22T06:37:31.983Z,0.80
2022-12-22T06:39:58.469Z,0.60
2022-12-22T06:42:43.908Z,1.20
2022-12-22T06:45:10.429Z,0.93
2022-12-22T06:47:36.949Z,1.00
2022-12-22T06:50:03.445Z,0.70
2022-12-22T06:52:29.946Z,0.73
2022-12-22T06:54:56.428Z,0.73
2022-12-22T06:57:22.999Z,0.73
2022-12-22T06:59:55.341Z,0.83
2022-12-22T07:02:24.081Z,0.70
2022-12-22T07:04:50.718Z,0.70
2022-12-22T07:07:17.243Z,0.57
2022-12-22T07:09:43.782Z,0.50
2022-12-22T07:12:10.328Z,0.57
2022-12-22T07:14:36.832Z,0.40
2022-12-22T07:17:03.427Z,0.63
2022-12-22T07:19:29.961Z,0.50
2022-12-22T07:21:56.590Z,0.50
2022-12-22T07:24:25.735Z,0.60
2022-12-22T07:26:52.324Z,0.50
2022-12-22T07:29:20.092Z,0.70
2022-12-22T07:31:46.647Z,0.80
2022-12-22T07:34:13.206Z,0.73
2022-12-22T07:36:39.725Z,0.90
2022-12-22T07:39:06.224Z,0.93
2022-12-22T07:41:51.525Z,0.93
2022-12-22T07:44:18.065Z,0.70
2022-12-22T07:46:44.569Z,0.60
2022-12-22T07:49:30.136Z,0.90
2022-12-22T07:51:56.743Z,0.80
2022-12-22T07:54:23.272Z,0.43
2022-12-22T07:56:49.778Z,1.07
2022-12-22T07:59:16.260Z,0.50
2022-12-22T08:01:42.910Z,1.00
2022-12-22T08:04:09.633Z,0.90
2022-12-22T08:06:36.174Z,0.50
2022-12-22T08:09:02.669Z,1.20
2022-12-22T08:11:29.182Z,2.60
2022-12-22T08:14:01.048Z,3.07
2022-12-22T08:16:28.356Z,1.50
2022-12-22T08:18:55.210Z,2.00
2022-12-22T08:21:21.741Z,3.30
2022-12-22T08:23:48.280Z,1.90
2022-12-22T08:26:14.794Z,2.07
2022-12-22T08:28:41.299Z,2.50
2022-12-22T08:31:07.979Z,2.77
2022-12-22T08:33:34.533Z,2.37
2022-12-22T08:36:07.545Z,3.33
2022-12-22T08:38:34.706Z,2.83
2022-12-22T08:41:01.180Z,2.83
2022-12-22T08:43:28.954Z,3.00
2022-12-22T08:45:55.490Z,3.20
2022-12-22T08:48:21.985Z,3.60
2022-12-22T08:50:48.460Z,3.90
2022-12-22T08:53:37.583Z,4.40
2022-12-22T08:56:01.563Z,6.90
2022-12-22T08:58:28.078Z,5.00
2022-12-22T09:00:54.600Z,5.83
2022-12-22T09:03:21.399Z,5.87
2022-12-22T09:05:48.039Z,5.30
2022-12-22T09:08:14.615Z,6.30
2022-12-22T09:10:41.114Z,6.37
2022-12-22T09:13:07.648Z,6.20
2022-12-22T09:15:34.159Z,8.37
2022-12-22T09:18:00.673Z,10.27
2022-12-22T09:20:27.213Z,10.37
2022-12-22T09:22:53.736Z,9.17
2022-12-22T09:25:20.256Z,9.37
2022-12-22T09:27:46.782Z,7.03
2022-12-22T09:30:13.296Z,16.10
2022-12-22T09:32:39.867Z,9.90
2022-12-22T09:35:06.482Z,12.07
2022-12-22T09:37:33.014Z,8.40
2022-12-22T09:39:59.559Z,6.90
2022-12-22T09:42:26.074Z,9.27
2022-12-22T09:44:52.639Z,9.37
2022-12-22T09:47:19.278Z,8.27
2022-12-22T09:49:45.902Z,14.87
2022-12-22T09:52:12.400Z,9.50
2022-12-22T09:54:38.867Z,9.33
2022-12-22T09:57:05.411Z,12.90
2022-12-22T09:59:32.515Z,10.00
2022-12-22T10:01:59.099Z,11.00
2022-12-22T10:04:25.708Z,12.67
2022-12-22T10:06:52.257Z,10.93
2022-12-22T10:09:46.104Z,11.40
2022-12-22T10:12:05.388Z,11.60
2022-12-22T10:14:31.900Z,12.50
2022-12-22T10:16:58.537Z,13.20
2022-12-22T10:19:25.129Z,13.20
2022-12-22T10:21:51.653Z,10.80
2022-12-22T10:24:18.199Z,11.63
2022-12-22T10:26:44.724Z,12.23
2022-12-22T10:29:11.251Z,13.10
2022-12-22T10:31:39.563Z,12.00
2022-12-22T10:34:06.180Z,12.27
2022-12-22T10:36:32.966Z,10.43
2022-12-22T10:38:59.618Z,11.23
2022-12-22T10:41:26.481Z,9.83
2022-12-22T10:43:53.004Z,9.80
2022-12-22T10:46:19.569Z,11.93
2022-12-22T10:48:46.109Z,11.10
2022-12-22T10:51:12.706Z,10.73
2022-12-22T10:53:39.184Z,12.47
2022-12-22T10:56:06.877Z,12.17
2022-12-22T10:58:33.423Z,11.17
2022-12-22T11:01:00.530Z,9.50
2022-12-22T11:03:27.178Z,10.90
2022-12-22T11:05:53.733Z,10.00
2022-12-22T11:08:20.299Z,9.33
2022-12-22T11:10:46.816Z,8.60
2022-12-22T11:13:13.376Z,8.90
2022-12-22T11:15:39.908Z,9.07
2022-12-22T11:18:06.470Z,8.97
2022-12-22T11:20:33.010Z,10.63
2022-12-22T11:22:59.484Z,9.27
2022-12-22T11:25:25.996Z,13.27
2022-12-22T11:27:52.537Z,10.63
2022-12-22T11:30:19.056Z,11.83
2022-12-22T11:32:45.571Z,12.00
2022-12-22T11:35:12.072Z,13.70
2022-12-22T11:37:38.584Z,15.10
2022-12-22T11:40:05.067Z,16.13
2022-12-22T11:42:31.566Z,15.10
2022-12-22T11:44:58.080Z,16.80
2022-12-22T11:47:25.315Z,18.50
2022-12-22T11:49:51.986Z,15.17
2022-12-22T11:52:20.147Z,15.10
2022-12-22T11:54:46.693Z,18.17
2022-12-22T11:57:13.252Z,18.00
2022-12-22T11:59:39.767Z,19.07
2022-12-22T12:02:06.379Z,18.87
2022-12-22T12:04:33.063Z,19.20
2022-12-22T12:06:59.644Z,18.30
2022-12-22T12:09:26.256Z,17.40
2022-12-22T12:11:52.761Z,17.17
2022-12-22T12:14:19.271Z,17.33
2022-12-22T12:16:45.795Z,16.90
2022-12-22T12:19:12.278Z,16.77
2022-12-22T12:21:38.877Z,15.83
2022-12-22T12:24:05.362Z,16.87
2022-12-22T12:26:31.978Z,14.23
2022-12-22T12:28:58.477Z,15.33
2022-12-22T12:31:26.751Z,15.33
2022-12-22T12:33:53.545Z,15.70
2022-12-22T12:36:20.064Z,15.93
2022-12-22T12:41:33.200Z,13.70
2022-12-22T12:43:59.800Z,12.33
2022-12-22T12:46:26.330Z,11.87
2022-12-22T12:48:52.884Z,10.10
2022-12-22T12:51:19.373Z,8.97
2022-12-22T12:53:45.942Z,8.33
2022-12-22T12:56:13.239Z,8.47
2022-12-22T12:58:39.760Z,9.17
2022-12-22T13:01:06.326Z,9.37
2022-12-22T13:04:02.334Z,8.93
2022-12-22T13:06:21.092Z,9.33
2022-12-22T13:08:47.590Z,10.73
2022-12-22T13:11:14.147Z,11.20
2022-12-22T13:13:40.713Z,9.40
2022-12-22T13:16:07.366Z,11.10
2022-12-22T13:18:34.058Z,9.33
2022-12-22T13:21:26.252Z,9.97
2022-12-22T13:24:22.409Z,10.77
2022-12-22T13:26:34.016Z,9.77
2022-12-22T13:29:00.602Z,11.77
2022-12-22T13:31:27.166Z,11.27
2022-12-22T13:33:53.689Z,10.70
2022-12-22T13:36:20.182Z,9.10
2022-12-22T13:38:47.011Z,9.60
2022-12-22T13:41:13.530Z,10.33
2022-12-22T13:43:40.633Z,7.63
2022-12-22T13:46:07.265Z,8.13
2022-12-22T13:48:39.868Z,6.67
2022-12-22T13:51:09.954Z,7.47
2022-12-22T13:56:22.992Z,7.33
2022-12-22T13:58:49.526Z,6.70
2022-12-22T14:01:17.054Z,5.77
2022-12-22T14:03:59.449Z,5.30
2022-12-22T14:06:26.683Z,5.60
2022-12-22T14:08:53.263Z,5.30
2022-12-22T14:11:19.744Z,3.77
2022-12-22T14:13:46.253Z,3.80
2022-12-22T14:16:12.825Z,4.10
2022-12-22T14:18:39.396Z,3.43
2022-12-22T14:21:05.894Z,4.13
2022-12-22T14:23:32.598Z,4.40
2022-12-22T14:25:59.169Z,3.63
2022-12-22T14:28:25.676Z,4.80
2022-12-22T14:30:52.220Z,4.40
2022-12-22T14:33:18.775Z,5.30
2022-12-22T14:35:45.327Z,4.93
2022-12-22T14:38:11.848Z,5.20
2022-12-22T14:40:38.577Z,4.87
2022-12-22T14:43:05.253Z,5.60
2022-12-22T14:45:31.839Z,5.53
2022-12-22T14:47:58.451Z,4.93
2022-12-22T14:50:25.002Z,5.30
2022-12-22T14:52:51.508Z,5.53
2022-12-22T14:55:17.994Z,6.77
2022-12-22T14:57:44.484Z,5.33
2022-12-22T15:00:11.085Z,5.63
2022-12-22T15:02:39.868Z,5.27
2022-12-22T15:05:06.907Z,5.93
2022-12-22T15:08:04.792Z,5.93
2022-12-22T15:10:19.954Z,5.13
2022-12-22T15:12:46.715Z,6.00
2022-12-22T15:15:13.406Z,5.87
2022-12-22T15:17:39.878Z,6.40
2022-12-22T15:20:06.835Z,6.13
2022-12-22T15:22:33.335Z,6.77
2022-12-22T15:24:59.868Z,7.93
2022-12-22T15:27:26.373Z,7.17
2022-12-22T15:29:52.859Z,7.33
2022-12-22T15:32:19.440Z,7.50
2022-12-22T15:34:45.931Z,9.03
2022-12-22T15:37:12.813Z,7.70
2022-12-22T15:39:39.382Z,8.20
2022-12-22T15:42:05.868Z,7.70
2022-12-22T15:44:38.483Z,9.00
2022-12-22T15:47:05.550Z,8.30
2022-12-22T15:49:32.228Z,7.50
2022-12-22T15:51:58.736Z,9.37
2022-12-22T15:54:25.234Z,8.73
2022-12-22T15:56:51.759Z,8.40
2022-12-22T15:59:18.284Z,8.70
2022-12-22T16:01:45.064Z,8.87
2022-12-22T16:04:11.735Z,7.37
2022-12-22T16:06:38.291Z,9.67
2022-12-22T16:09:04.791Z,9.30
2022-12-22T16:11:31.274Z,9.20
2022-12-22T16:13:57.777Z,9.70
2022-12-22T16:16:24.292Z,10.50
2022-12-22T16:18:51.995Z,10.47
2022-12-22T16:21:18.548Z,10.20
2022-12-22T16:23:45.048Z,10.77
2022-12-22T16:26:11.577Z,10.07
2022-12-22T16:28:38.164Z,9.00
2022-12-22T16:31:04.726Z,9.87
2022-12-22T16:33:31.244Z,10.97
2022-12-22T16:35:57.793Z,10.17
2022-12-22T16:38:24.417Z,9.67
2022-12-22T16:40:50.957Z,11.13
2022-12-22T16:46:02.024Z,10.23
2022-12-22T16:48:28.665Z,9.33
2022-12-22T16:50:55.147Z,9.33
2022-12-22T16:53:21.687Z,8.33
2022-12-22T16:55:48.173Z,8.50
2022-12-22T16:58:14.698Z,8.20
2022-12-22T17:00:41.283Z,8.30
2022-12-22T17:03:07.987Z,9.47
2022-12-22T17:05:42.034Z,9.67
2022-12-22T17:08:10.756Z,8.10
2022-12-22T17:10:37.278Z,8.03
2022-12-22T17:13:03.883Z,9.37
2022-12-22T17:15:30.448Z,7.53
2022-12-22T17:17:56.977Z,8.47
2022-12-22T17:20:23.496Z,8.73
2022-12-22T17:22:50.000Z,6.83
2022-12-22T17:25:16.517Z,9.67
2022-12-22T17:27:43.012Z,8.40
2022-12-22T17:30:14.433Z,8.43
2022-12-22T17:32:44.168Z,8.63
2022-12-22T17:35:10.662Z,9.80
2022-12-22T17:37:37.183Z,9.73
2022-12-22T17:40:03.767Z,9.77
2022-12-22T17:42:31.227Z,10.17
2022-12-22T17:44:57.760Z,9.73
2022-12-22T17:47:32.222Z,10.80
2022-12-22T17:50:01.464Z,9.73
2022-12-22T17:52:28.191Z,9.50
2022-12-22T17:54:55.130Z,11.10
2022-12-22T17:57:21.649Z,10.13
2022-12-22T17:59:48.125Z,10.87
2022-12-22T18:02:14.690Z,12.40
2022-12-22T18:04:41.203Z,9.60
2022-12-22T18:07:07.720Z,9.00
2022-12-22T18:09:34.247Z,10.10
2022-12-22T18:12:00.788Z,11.63
2022-12-22T18:14:27.539Z,10.40
2022-12-22T18:16:54.086Z,10.03
2022-12-22T18:19:20.599Z,10.27
2022-12-22T18:21:47.169Z,9.80
2022-12-22T18:24:13.680Z,9.93
2022-12-22T18:26:40.172Z,8.83
2022-12-22T18:29:06.789Z,8.97
2022-12-22T18:31:33.294Z,8.53
2022-12-22T18:33:59.813Z,7.50
2022-12-22T18:36:26.302Z,8.90
2022-12-22T18:38:52.872Z,8.03
2022-12-22T18:41:19.592Z,8.40
2022-12-22T18:43:46.466Z,8.23
2022-12-22T18:46:13.098Z,9.30
2022-12-22T18:48:39.652Z,7.40
2022-12-22T18:51:07.013Z,6.70
2022-12-22T18:53:33.534Z,7.30
2022-12-22T18:56:00.111Z,6.83
2022-12-22T18:58:26.622Z,7.57
2022-12-22T19:00:53.249Z,6.20
2022-12-22T19:03:19.920Z,6.50
2022-12-22T19:05:47.505Z,6.57
2022-12-22T19:08:14.036Z,8.20
2022-12-22T19:10:40.947Z,8.13
2022-12-22T19:13:08.959Z,8.00
2022-12-22T19:15:38.679Z,7.10
2022-12-22T19:18:05.149Z,5.97
2022-12-22T19:20:31.697Z,6.70
2022-12-22T19:22:58.183Z,6.13
2022-12-22T19:25:24.695Z,6.57
2022-12-22T19:27:51.239Z,6.37
2022-12-22T19:30:17.783Z,6.27
2022-12-22T19:32:46.196Z,5.70
2022-12-22T19:35:12.970Z,6.40
2022-12-22T19:37:39.443Z,4.83
2022-12-22T19:40:05.998Z,4.57
2022-12-22T19:42:32.516Z,4.57
2022-12-22T19:44:59.024Z,4.27
2022-12-22T19:47:28.224Z,4.07
2022-12-22T19:49:54.704Z,5.63
2022-12-22T19:52:21.226Z,4.07
2022-12-22T19:54:47.728Z,4.10
2022-12-22T19:57:14.280Z,4.00
2022-12-22T19:59:40.843Z,3.57
2022-12-22T20:02:07.633Z,4.83
2022-12-22T20:04:34.338Z,4.70
2022-12-22T20:07:00.831Z,4.20
2022-12-22T20:09:27.307Z,4.43
2022-12-22T20:11:53.793Z,4.57
2022-12-22T20:14:20.306Z,4.60
2022-12-22T20:16:46.967Z,4.03
2022-12-22T20:19:13.663Z,4.47
2022-12-22T20:21:40.194Z,5.90
2022-12-22T20:24:06.678Z,3.70
2022-12-22T20:26:33.230Z,5.10
2022-12-22T20:28:59.810Z,2.93
2022-12-22T20:31:26.520Z,3.63
2022-12-22T20:33:54.808Z,4.07
2022-12-22T20:36:21.351Z,3.30
2022-12-22T20:38:47.894Z,3.90
2022-12-22T20:41:14.451Z,3.53
2022-12-22T20:43:41.753Z,2.93
2022-12-22T20:46:08.311Z,3.30
2022-12-22T20:48:34.874Z,2.63
2022-12-22T20:51:01.347Z,2.70
2022-12-22T20:53:27.939Z,2.50
2022-12-22T20:55:54.479Z,2.00
2022-12-22T20:58:22.470Z,2.27
2022-12-22T21:00:49.005Z,2.10
2022-12-22T21:03:15.696Z,1.80
2022-12-22T21:05:42.436Z,1.90
2022-12-22T21:08:08.939Z,2.03
2022-12-22T21:10:35.410Z,3.00
2022-12-22T21:13:01.958Z,2.47
2022-12-22T21:15:28.460Z,2.33
2022-12-22T21:17:58.617Z,2.20
2022-12-22T21:20:25.727Z,2.27
2022-12-22T21:22:52.288Z,2.27
2022-12-22T21:25:18.743Z,1.83
2022-12-22T21:27:45.414Z,3.60
2022-12-22T21:30:11.946Z,2.07
2022-12-22T21:32:38.421Z,2.27
2022-12-22T21:35:08.311Z,1.83
2022-12-22T21:37:35.842Z,2.00
2022-12-22T21:40:02.330Z,1.83
2022-12-22T21:42:28.875Z,2.17
2022-12-22T21:44:56.370Z,2.50
2022-12-22T21:47:22.887Z,2.00
2022-12-22T21:49:49.800Z,1.60
2022-12-22T21:52:16.353Z,2.10
2022-12-22T21:54:43.000Z,2.73
2022-12-22T21:57:09.586Z,2.07
2022-12-22T21:59:36.096Z,2.10
2022-12-22T22:02:02.784Z,1.80
2022-12-22T22:04:29.440Z,1.97
2022-12-22T22:06:55.990Z,2.00
2022-12-22T22:09:22.490Z,2.40
2022-12-22T22:12:07.876Z,2.40
2022-12-22T22:14:34.434Z,2.00
2022-12-22T22:17:00.996Z,2.27
2022-12-22T22:19:27.555Z,2.03
2022-12-22T22:21:54.035Z,2.50
2022-12-22T22:24:20.547Z,1.67
2022-12-22T22:26:49.260Z,2.73
2022-12-22T22:29:15.848Z,1.90
2022-12-22T22:31:42.443Z,2.00
2022-12-22T22:34:09.001Z,2.00
2022-12-22T22:36:35.544Z,1.97
2022-12-22T22:39:02.030Z,2.13
2022-12-22T22:41:31.060Z,1.90
2022-12-22T22:43:57.563Z,2.00
2022-12-22T22:46:24.074Z,3.30
2022-12-22T22:48:50.622Z,2.10
2022-12-22T22:51:17.164Z,2.20
2022-12-22T22:53:43.740Z,2.47
2022-12-22T22:56:10.260Z,2.70
2022-12-22T22:58:36.767Z,2.70
2022-12-22T23:01:03.266Z,2.03
2022-12-22T23:03:29.920Z,2.70
2022-12-22T23:05:56.697Z,2.30
2022-12-22T23:08:23.288Z,3.00
2022-12-22T23:10:49.750Z,2.60
2022-12-22T23:13:16.269Z,2.60
2022-12-22T23:15:42.950Z,4.10
2022-12-22T23:18:09.547Z,2.67
2022-12-22T23:20:36.076Z,3.10
2022-12-22T23:23:02.606Z,2.80
2022-12-22T23:25:29.091Z,2.20
2022-12-22T23:27:55.593Z,3.20
2022-12-22T23:30:22.109Z,3.00
2022-12-22T23:32:48.601Z,2.60
2022-12-22T23:35:15.071Z,2.00
2022-12-22T23:37:41.569Z,2.50
2022-12-22T23:40:41.886Z,2.80
2022-12-22T23:42:57.050Z,2.80
2022-12-22T23:45:23.905Z,1.93
2022-12-22T23:47:50.424Z,1.97
2022-12-22T23:50:16.911Z,2.57
2022-12-22T23:52:48.901Z,3.00
2022-12-22T23:55:16.033Z,2.30
2022-12-22T23:57:42.516Z,2.57
